createdAt,value
2023-04-18T00:00:25.443Z,13.33
2023-04-18T00:02:52.353Z,13.51
2023-04-18T00:05:33.629Z,13.51
2023-04-18T00:08:07.544Z,13.44
2023-04-18T00:10:39.672Z,13.35
2023-04-18T00:13:09.719Z,13.55
2023-04-18T00:15:39.593Z,13.60
2023-04-18T00:18:18.056Z,13.48
2023-04-18T00:20:45.122Z,13.39
2023-04-18T00:23:34.666Z,13.38
2023-04-18T00:26:12.053Z,13.48
2023-04-18T00:28:45.029Z,13.60
2023-04-18T00:31:20.622Z,13.47
2023-04-18T00:33:49.865Z,13.56
2023-04-18T00:36:25.308Z,13.47
2023-04-18T00:39:00.788Z,13.57
2023-04-18T00:41:30.142Z,13.60
2023-04-18T00:43:57.023Z,13.55
2023-04-18T00:46:29.843Z,13.44
2023-04-18T00:49:08.065Z,13.44
2023-04-18T00:51:43.972Z,13.49
2023-04-18T00:54:24.826Z,13.41
2023-04-18T00:56:57.619Z,13.47
2023-04-18T00:59:24.682Z,13.42
2023-04-18T01:01:51.588Z,13.46
2023-04-18T01:04:29.247Z,13.49
2023-04-18T01:07:05.950Z,13.57
2023-04-18T01:09:41.444Z,13.69
2023-04-18T01:12:11.265Z,13.51
2023-04-18T01:17:27.641Z,13.36
2023-04-18T01:19:57.028Z,13.38
2023-04-18T01:22:26.369Z,13.61
2023-04-18T01:28:15.189Z,13.73
2023-04-18T01:30:55.185Z,13.70
2023-04-18T01:33:32.133Z,14.03
2023-04-18T01:36:13.465Z,13.92
2023-04-18T01:38:52.960Z,13.73
2023-04-18T01:41:19.724Z,13.56
2023-04-18T01:43:52.865Z,13.44
2023-04-18T01:46:27.197Z,13.57
2023-04-18T01:48:56.511Z,13.87
2023-04-18T01:51:26.454Z,14.02
2023-04-18T01:54:02.025Z,13.98
2023-04-18T01:56:34.166Z,13.86
2023-04-18T01:59:13.592Z,13.65
2023-04-18T02:01:49.323Z,13.64
2023-04-18T02:04:16.513Z,13.62
2023-04-18T02:06:43.375Z,13.79
2023-04-18T02:09:10.119Z,13.96
2023-04-18T02:11:50.378Z,14.10
2023-04-18T02:14:17.144Z,13.94
2023-04-18T02:16:43.942Z,13.98
2023-04-18T02:19:13.487Z,13.80
2023-04-18T02:21:40.198Z,13.81
2023-04-18T02:24:09.982Z,13.76
2023-04-18T02:26:39.724Z,13.74
2023-04-18T02:29:06.408Z,13.92
2023-04-18T02:31:33.484Z,13.76
2023-04-18T02:34:00.225Z,13.73
2023-04-18T02:36:29.912Z,13.70
2023-04-18T02:38:57.015Z,13.78
2023-04-18T02:41:23.792Z,13.68
2023-04-18T02:44:03.130Z,13.66
2023-04-18T02:46:37.999Z,13.52
2023-04-18T02:49:04.771Z,13.66
2023-04-18T02:51:31.714Z,13.55
2023-04-18T02:54:02.923Z,13.60
2023-04-18T02:56:29.808Z,13.47
2023-04-18T02:59:08.757Z,13.24
2023-04-18T03:01:45.205Z,13.45
2023-04-18T03:04:16.227Z,13.36
2023-04-18T03:06:48.692Z,13.32
2023-04-18T03:09:19.973Z,13.32
2023-04-18T03:11:49.428Z,13.38
2023-04-18T03:14:17.143Z,13.22
2023-04-18T03:16:44.007Z,13.21
2023-04-18T03:19:12.283Z,13.19
2023-04-18T03:21:41.275Z,13.07
2023-04-18T03:24:12.255Z,13.05
2023-04-18T03:26:47.133Z,13.10
2023-04-18T03:29:22.546Z,13.10
2023-04-18T03:31:49.360Z,13.10
2023-04-18T03:34:16.092Z,13.02
2023-04-18T03:36:49.225Z,13.07
2023-04-18T03:39:16.044Z,13.01
2023-04-18T03:41:42.818Z,12.96
2023-04-18T03:44:17.406Z,13.04
2023-04-18T03:46:44.600Z,13.10
2023-04-18T03:49:16.771Z,13.15
2023-04-18T03:51:46.590Z,13.15
2023-04-18T03:56:54.916Z,13.03
2023-04-18T03:59:28.720Z,13.10
2023-04-18T04:01:55.719Z,13.14
2023-04-18T04:04:22.736Z,12.98
2023-04-18T04:06:53.895Z,13.06
2023-04-18T04:09:20.686Z,12.98
2023-04-18T04:11:50.724Z,12.86
2023-04-18T04:14:23.408Z,12.79
2023-04-18T04:17:00.539Z,12.83
2023-04-18T04:19:27.244Z,12.79
2023-04-18T04:21:53.965Z,12.71
2023-04-18T04:24:20.700Z,12.91
2023-04-18T04:26:47.535Z,12.98
2023-04-18T04:29:15.206Z,12.95
2023-04-18T04:31:49.299Z,12.97
2023-04-18T04:34:16.232Z,12.92
2023-04-18T04:36:49.675Z,12.93
2023-04-18T04:39:16.704Z,12.89
2023-04-18T04:41:43.430Z,12.90
2023-04-18T04:44:10.123Z,12.99
2023-04-18T04:46:39.767Z,13.03
2023-04-18T04:49:06.692Z,13.06
2023-04-18T04:51:35.985Z,13.03
2023-04-18T04:54:06.345Z,12.95
2023-04-18T04:56:33.349Z,12.90
2023-04-18T04:59:02.929Z,12.83
2023-04-18T05:01:39.306Z,12.87
2023-04-18T05:04:06.283Z,13.01
2023-04-18T05:06:38.393Z,13.04
2023-04-18T05:09:09.972Z,12.99
2023-04-18T05:11:39.294Z,13.02
2023-04-18T05:14:06.098Z,12.95
2023-04-18T05:16:34.959Z,12.98
2023-04-18T05:19:01.839Z,13.06
2023-04-18T05:21:30.369Z,13.06
2023-04-18T05:24:00.548Z,13.17
2023-04-18T05:26:31.215Z,13.29
2023-04-18T05:29:00.802Z,13.31
2023-04-18T05:31:29.110Z,13.33
2023-04-18T05:33:55.960Z,13.44
2023-04-18T05:36:25.717Z,13.56
2023-04-18T05:38:52.443Z,13.63
2023-04-18T05:41:19.153Z,13.50
2023-04-18T05:44:04.839Z,13.52
2023-04-18T05:46:34.653Z,13.67
2023-04-18T05:49:04.600Z,13.65
2023-04-18T05:51:31.386Z,13.72
2023-04-18T05:54:04.258Z,13.78
2023-04-18T05:56:31.025Z,13.92
2023-04-18T05:59:00.369Z,14.01
2023-04-18T06:01:28.602Z,14.00
2023-04-18T06:03:58.878Z,14.17
2023-04-18T06:06:33.830Z,14.25
2023-04-18T06:09:00.857Z,14.15
2023-04-18T06:11:27.645Z,14.30
2023-04-18T06:13:54.412Z,14.40
2023-04-18T06:16:25.653Z,14.67
2023-04-18T06:18:55.610Z,14.51
2023-04-18T06:21:28.353Z,14.63
2023-04-18T06:24:12.804Z,14.87
2023-04-18T06:26:42.084Z,14.83
2023-04-18T06:29:19.769Z,14.94
2023-04-18T06:32:13.720Z,14.59
2023-04-18T06:34:47.875Z,14.50
2023-04-18T06:37:19.363Z,14.55
2023-04-18T06:39:46.091Z,14.47
2023-04-18T06:42:23.066Z,14.47
2023-04-18T06:45:13.202Z,14.42
2023-04-18T06:47:42.565Z,14.41
2023-04-18T06:50:10.276Z,14.52
2023-04-18T06:52:56.957Z,14.68
2023-04-18T06:55:34.204Z,14.87
2023-04-18T06:58:12.412Z,14.89
2023-04-18T07:00:39.384Z,15.10
2023-04-18T07:03:07.630Z,15.48
2023-04-18T07:05:49.108Z,15.60
2023-04-18T07:08:24.151Z,15.73
2023-04-18T07:10:57.010Z,15.73
2023-04-18T07:13:23.753Z,15.91
2023-04-18T07:15:53.850Z,15.88
2023-04-18T07:18:38.720Z,16.14
2023-04-18T07:21:07.495Z,16.45
2023-04-18T07:23:41.010Z,16.41
2023-04-18T07:29:04.329Z,16.24
2023-04-18T07:34:26.673Z,16.39
2023-04-18T07:36:56.178Z,16.51
2023-04-18T07:39:28.759Z,16.47
2023-04-18T07:42:06.088Z,16.26
2023-04-18T07:44:36.344Z,16.35
2023-04-18T07:47:08.929Z,16.70
2023-04-18T07:49:40.024Z,16.90
2023-04-18T07:52:08.805Z,17.10
2023-04-18T07:54:41.251Z,16.98
2023-04-18T07:57:08.022Z,17.04
2023-04-18T07:59:46.946Z,17.11
2023-04-18T08:02:18.482Z,17.34
2023-04-18T08:04:51.272Z,17.05
2023-04-18T08:07:18.200Z,17.06
2023-04-18T08:09:44.961Z,17.11
2023-04-18T08:12:11.713Z,17.25
2023-04-18T08:14:41.525Z,17.09
2023-04-18T08:17:11.205Z,17.11
2023-04-18T08:19:40.952Z,17.08
2023-04-18T08:22:11.551Z,17.05
2023-04-18T08:24:39.258Z,17.10
2023-04-18T08:27:11.984Z,17.29
2023-04-18T08:29:56.278Z,17.31
2023-04-18T08:32:24.206Z,17.40
2023-04-18T08:34:50.924Z,17.75
2023-04-18T08:37:17.627Z,17.92
2023-04-18T08:39:48.692Z,17.98
2023-04-18T08:42:18.976Z,18.04
2023-04-18T08:44:47.531Z,18.32
2023-04-18T08:47:15.114Z,18.25
2023-04-18T08:49:46.654Z,18.08
2023-04-18T08:52:14.966Z,17.97
2023-04-18T08:54:45.277Z,17.94
2023-04-18T08:57:18.793Z,17.88
2023-04-18T08:59:48.260Z,17.76
2023-04-18T09:02:23.285Z,17.84
2023-04-18T09:04:53.397Z,17.84
2023-04-18T09:07:28.648Z,17.86
2023-04-18T09:09:57.597Z,18.07
2023-04-18T09:12:27.159Z,17.94
2023-04-18T09:15:18.767Z,18.07
2023-04-18T09:17:47.330Z,18.18
2023-04-18T09:20:39.992Z,18.12
2023-04-18T09:23:27.625Z,18.20
2023-04-18T09:26:01.463Z,18.29
2023-04-18T09:28:41.454Z,18.32
2023-04-18T09:31:10.739Z,18.29
2023-04-18T09:33:48.478Z,18.20
2023-04-18T09:36:26.304Z,18.10
2023-04-18T09:39:04.196Z,18.10
2023-04-18T09:41:37.095Z,18.07
2023-04-18T09:44:21.763Z,18.20
2023-04-18T09:46:49.466Z,18.38
2023-04-18T09:49:27.803Z,18.36
2023-04-18T09:54:39.150Z,18.38
2023-04-18T09:57:17.435Z,18.57
2023-04-18T10:00:13.482Z,18.52
2023-04-18T10:02:47.915Z,18.48
2023-04-18T10:05:23.166Z,18.78
2023-04-18T10:07:50.678Z,18.74
2023-04-18T10:10:22.207Z,18.69
2023-04-18T10:12:55.382Z,18.97
2023-04-18T10:15:25.900Z,19.03
2023-04-18T10:18:04.587Z,19.00
2023-04-18T10:20:33.971Z,19.06
2023-04-18T10:23:31.752Z,19.11
2023-04-18T10:25:59.422Z,19.06
2023-04-18T10:28:32.070Z,19.09
2023-04-18T10:31:01.941Z,19.24
2023-04-18T10:33:43.205Z,19.13
2023-04-18T10:36:09.887Z,18.97
2023-04-18T10:38:37.739Z,18.98
2023-04-18T10:41:22.408Z,18.86
2023-04-18T10:44:08.530Z,19.15
2023-04-18T10:46:42.474Z,18.93
2023-04-18T10:49:53.222Z,19.10
2023-04-18T10:52:20.066Z,19.12
2023-04-18T10:55:10.268Z,19.05
2023-04-18T10:57:47.781Z,19.16
2023-04-18T11:00:17.476Z,19.18
2023-04-18T11:02:56.765Z,19.12
2023-04-18T11:05:32.152Z,19.16
2023-04-18T11:08:01.178Z,19.31
2023-04-18T11:10:32.410Z,19.23
2023-04-18T11:13:05.483Z,19.11
2023-04-18T11:15:39.499Z,19.35
2023-04-18T11:18:06.447Z,19.42
2023-04-18T11:20:46.290Z,19.42
2023-04-18T11:23:25.046Z,19.48
2023-04-18T11:25:55.139Z,19.64
2023-04-18T11:28:22.812Z,19.45
2023-04-18T11:30:52.365Z,19.28
2023-04-18T11:33:19.126Z,19.24
2023-04-18T11:35:46.688Z,19.34
2023-04-18T11:38:24.344Z,19.33
2023-04-18T11:40:56.696Z,19.37
2023-04-18T11:43:25.262Z,19.15
2023-04-18T11:45:59.469Z,19.12
2023-04-18T11:48:47.809Z,18.95
2023-04-18T11:51:35.070Z,18.85
2023-04-18T11:54:02.149Z,18.78
2023-04-18T11:56:29.090Z,18.78
2023-04-18T11:59:01.488Z,18.60
2023-04-18T12:01:29.620Z,18.65
2023-04-18T12:04:17.483Z,18.64
2023-04-18T12:06:52.788Z,18.71
2023-04-18T12:09:31.120Z,18.61
2023-04-18T12:11:58.819Z,18.71
2023-04-18T12:14:46.204Z,18.65
2023-04-18T12:17:13.453Z,18.70
2023-04-18T12:19:49.867Z,18.90
2023-04-18T12:22:20.182Z,18.91
2023-04-18T12:25:10.493Z,18.85
2023-04-18T12:27:58.880Z,18.99
2023-04-18T12:30:42.326Z,18.93
2023-04-18T12:33:11.752Z,18.77
2023-04-18T12:35:39.431Z,18.57
2023-04-18T12:38:18.524Z,18.57
2023-04-18T12:40:49.306Z,18.68
2023-04-18T12:43:16.427Z,18.70
2023-04-18T12:45:48.632Z,18.72
2023-04-18T12:48:15.474Z,18.58
2023-04-18T12:50:42.380Z,18.46
2023-04-18T12:53:19.814Z,18.30
2023-04-18T12:55:46.643Z,18.37
2023-04-18T12:58:21.428Z,18.47
2023-04-18T13:00:54.142Z,18.61
2023-04-18T13:03:32.962Z,18.48
2023-04-18T13:06:02.914Z,18.51
2023-04-18T13:08:29.962Z,18.35
2023-04-18T13:11:08.034Z,18.38
2023-04-18T13:13:37.290Z,18.65
2023-04-18T13:16:07.175Z,18.74
2023-04-18T13:18:33.991Z,18.83
2023-04-18T13:21:06.177Z,18.86
2023-04-18T13:23:38.189Z,18.84
2023-04-18T13:26:07.492Z,18.84
2023-04-18T13:28:34.188Z,18.85
2023-04-18T13:31:03.222Z,18.89
2023-04-18T13:36:14.908Z,19.03
2023-04-18T13:38:42.940Z,19.00
2023-04-18T13:41:14.220Z,18.82
2023-04-18T13:43:50.195Z,18.81
2023-04-18T13:46:19.938Z,18.71
2023-04-18T13:48:51.997Z,18.75
2023-04-18T13:51:18.694Z,18.86
2023-04-18T13:53:45.372Z,18.82
2023-04-18T13:56:15.081Z,18.70
2023-04-18T13:58:41.764Z,18.62
2023-04-18T14:01:14.129Z,18.77
2023-04-18T14:03:43.504Z,18.83
2023-04-18T14:06:33.901Z,18.85
2023-04-18T14:09:02.201Z,18.90
2023-04-18T14:11:37.080Z,19.00
2023-04-18T14:16:55.173Z,19.08
2023-04-18T14:19:27.357Z,19.15
2023-04-18T14:22:00.503Z,19.09
2023-04-18T14:24:33.339Z,19.17
2023-04-18T14:27:04.194Z,19.08
2023-04-18T14:29:38.158Z,18.99
2023-04-18T14:32:06.408Z,18.97
2023-04-18T14:34:43.255Z,19.03
2023-04-18T14:37:09.982Z,18.93
2023-04-18T14:39:56.616Z,18.92
2023-04-18T14:42:25.998Z,18.88
2023-04-18T14:45:06.728Z,18.89
2023-04-18T14:47:33.529Z,18.79
2023-04-18T14:50:03.037Z,18.76
2023-04-18T14:52:32.408Z,18.98
2023-04-18T14:54:59.733Z,19.00
2023-04-18T14:57:29.622Z,19.11
2023-04-18T15:00:03.949Z,18.86
2023-04-18T15:02:30.805Z,18.60
2023-04-18T15:05:02.354Z,18.79
2023-04-18T15:07:29.103Z,18.79
2023-04-18T15:10:01.815Z,18.65
2023-04-18T15:12:29.877Z,18.66
2023-04-18T15:14:56.989Z,18.61
2023-04-18T15:17:29.318Z,18.58
2023-04-18T15:19:59.453Z,18.72
2023-04-18T15:22:30.759Z,18.72
2023-04-18T15:25:00.992Z,18.65
2023-04-18T15:27:28.974Z,18.73
2023-04-18T15:29:55.650Z,18.50
2023-04-18T15:32:26.340Z,18.48
2023-04-18T15:34:54.409Z,18.30
2023-04-18T15:37:23.046Z,18.38
2023-04-18T15:39:49.728Z,18.42
2023-04-18T15:42:20.310Z,18.37
2023-04-18T15:44:49.503Z,18.32
2023-04-18T15:47:16.160Z,18.33
2023-04-18T15:49:43.198Z,18.45
2023-04-18T15:52:14.236Z,18.42
2023-04-18T15:54:41.193Z,18.40
2023-04-18T15:57:11.253Z,18.41
2023-04-18T16:02:30.612Z,18.21
2023-04-18T16:04:57.394Z,18.26
2023-04-18T16:07:24.070Z,18.23
2023-04-18T16:09:50.735Z,18.20
2023-04-18T16:12:20.404Z,18.19
2023-04-18T16:14:47.123Z,18.29
2023-04-18T16:17:13.814Z,18.23
2023-04-18T16:19:40.521Z,18.23
2023-04-18T16:22:07.225Z,18.22
2023-04-18T16:24:33.945Z,18.23
2023-04-18T16:27:09.383Z,18.25
2023-04-18T16:29:36.024Z,18.25
2023-04-18T16:32:07.081Z,18.37
2023-04-18T16:34:36.548Z,18.34
2023-04-18T16:37:07.006Z,18.26
2023-04-18T16:39:37.529Z,18.21
2023-04-18T16:42:17.548Z,18.19
2023-04-18T16:44:48.623Z,18.46
2023-04-18T16:47:29.120Z,18.19
2023-04-18T16:49:55.999Z,18.16
2023-04-18T16:52:22.890Z,18.13
2023-04-18T16:54:51.978Z,18.33
2023-04-18T16:57:19.314Z,18.13
2023-04-18T16:59:45.960Z,18.03
2023-04-18T17:02:27.406Z,18.09
2023-04-18T17:04:57.921Z,18.01
2023-04-18T17:07:39.022Z,17.96
2023-04-18T17:10:10.117Z,18.05
2023-04-18T17:12:41.414Z,17.95
2023-04-18T17:15:11.183Z,17.89
2023-04-18T17:17:52.261Z,17.88
2023-04-18T17:20:22.275Z,17.84
2023-04-18T17:22:49.086Z,17.79
2023-04-18T17:25:20.358Z,17.72
2023-04-18T17:27:49.517Z,17.72
2023-04-18T17:30:20.161Z,17.72
2023-04-18T17:33:05.374Z,17.71
2023-04-18T17:35:34.659Z,17.73
2023-04-18T17:38:08.581Z,17.73
2023-04-18T17:40:35.307Z,17.68
2023-04-18T17:43:02.161Z,17.62
2023-04-18T17:45:30.871Z,17.64
2023-04-18T17:47:58.327Z,17.61
2023-04-18T17:50:29.427Z,17.59
2023-04-18T17:52:56.279Z,17.50
2023-04-18T17:55:23.257Z,17.47
2023-04-18T17:57:49.988Z,17.51
2023-04-18T18:00:20.950Z,17.57
2023-04-18T18:02:47.912Z,17.59
2023-04-18T18:05:19.592Z,17.53
2023-04-18T18:07:54.694Z,17.43
2023-04-18T18:10:22.957Z,17.41
2023-04-18T18:12:53.180Z,17.41
2023-04-18T18:15:24.586Z,17.55
2023-04-18T18:17:54.270Z,17.68
2023-04-18T18:20:23.116Z,17.35
2023-04-18T18:22:52.174Z,17.11
2023-04-18T18:25:18.999Z,17.10
2023-04-18T18:27:50.078Z,16.90
2023-04-18T18:30:27.823Z,16.61
2023-04-18T18:32:54.937Z,16.60
2023-04-18T18:35:25.273Z,16.51
2023-04-18T18:37:55.306Z,16.50
2023-04-18T18:40:22.644Z,16.47
2023-04-18T18:42:56.794Z,16.46
2023-04-18T18:45:38.903Z,16.56
2023-04-18T18:48:05.998Z,16.70
2023-04-18T18:50:36.218Z,16.75
2023-04-18T18:53:08.677Z,16.80
2023-04-18T18:55:55.089Z,16.76
2023-04-18T18:58:34.599Z,16.88
2023-04-18T19:01:01.721Z,16.92
2023-04-18T19:03:29.876Z,16.79
2023-04-18T19:06:03.432Z,16.70
2023-04-18T19:08:44.870Z,16.67
2023-04-18T19:11:11.461Z,16.70
2023-04-18T19:13:38.331Z,16.77
2023-04-18T19:16:08.100Z,16.68
2023-04-18T19:18:34.767Z,16.62
2023-04-18T19:21:02.343Z,16.57
2023-04-18T19:23:29.047Z,16.46
2023-04-18T19:25:58.130Z,16.30
2023-04-18T19:28:28.309Z,16.18
2023-04-18T19:31:08.287Z,16.18
2023-04-18T19:33:35.138Z,16.11
2023-04-18T19:36:01.801Z,16.09
2023-04-18T19:38:28.631Z,16.02
2023-04-18T19:40:55.356Z,16.11
2023-04-18T19:43:22.055Z,16.16
2023-04-18T19:45:52.615Z,16.19
2023-04-18T19:48:27.884Z,16.28
2023-04-18T19:50:56.589Z,16.59
2023-04-18T19:53:23.368Z,16.30
2023-04-18T19:55:55.737Z,16.17
2023-04-18T19:58:40.970Z,16.09
2023-04-18T20:01:20.629Z,15.95
2023-04-18T20:03:48.801Z,15.86
2023-04-18T20:06:24.166Z,15.87
2023-04-18T20:08:50.861Z,15.90
2023-04-18T20:11:20.351Z,15.93
2023-04-18T20:13:47.061Z,15.94
2023-04-18T20:16:13.812Z,15.79
2023-04-18T20:18:41.354Z,15.56
2023-04-18T20:21:09.354Z,15.42
2023-04-18T20:23:49.410Z,15.30
2023-04-18T20:26:18.947Z,15.34
2023-04-18T20:28:45.607Z,15.31
2023-04-18T20:31:15.332Z,15.33
2023-04-18T20:33:42.137Z,15.40
2023-04-18T20:36:12.396Z,15.46
2023-04-18T20:38:39.096Z,15.48
2023-04-18T20:41:06.567Z,15.44
2023-04-18T20:43:37.645Z,15.36
2023-04-18T20:46:04.531Z,15.52
2023-04-18T20:48:36.500Z,15.85
2023-04-18T20:51:13.081Z,15.59
2023-04-18T20:53:42.595Z,15.40
2023-04-18T20:56:09.484Z,15.31
2023-04-18T20:58:43.674Z,15.21
2023-04-18T21:01:10.535Z,15.17
2023-04-18T21:03:46.446Z,15.19
2023-04-18T21:06:18.595Z,15.16
2023-04-18T21:08:48.288Z,15.04
2023-04-18T21:11:20.749Z,15.09
2023-04-18T21:13:47.435Z,15.04
2023-04-18T21:16:14.227Z,15.13
2023-04-18T21:18:44.004Z,15.07
2023-04-18T21:21:10.662Z,14.95
2023-04-18T21:23:44.539Z,14.85
2023-04-18T21:26:12.691Z,15.02
2023-04-18T21:29:12.752Z,14.98
2023-04-18T21:31:51.530Z,14.91
2023-04-18T21:34:18.371Z,15.10
2023-04-18T21:37:14.483Z,15.25
2023-04-18T21:39:50.836Z,15.38
2023-04-18T21:42:20.378Z,14.98
2023-04-18T21:44:47.119Z,14.65
2023-04-18T21:47:24.384Z,14.64
2023-04-18T21:49:58.440Z,14.69
2023-04-18T21:52:29.213Z,14.86
2023-04-18T21:54:59.360Z,14.90
2023-04-18T21:57:35.778Z,14.84
2023-04-18T22:00:05.089Z,15.01
2023-04-18T22:02:35.805Z,15.09
2023-04-18T22:05:03.099Z,15.01
2023-04-18T22:07:35.340Z,15.10
2023-04-18T22:10:16.174Z,15.06
2023-04-18T22:12:46.241Z,15.04
2023-04-18T22:15:16.045Z,15.15
2023-04-18T22:17:49.332Z,15.11
2023-04-18T22:20:25.722Z,15.05
2023-04-18T22:23:01.450Z,14.87
2023-04-18T22:25:31.588Z,14.69
2023-04-18T22:28:11.212Z,14.46
2023-04-18T22:30:50.157Z,14.32
2023-04-18T22:33:17.516Z,14.33
2023-04-18T22:35:44.245Z,14.60
2023-04-18T22:38:10.938Z,14.68
2023-04-18T22:40:40.577Z,14.48
2023-04-18T22:43:12.972Z,14.49
2023-04-18T22:45:45.823Z,14.40
2023-04-18T22:48:12.603Z,14.31
2023-04-18T22:50:48.553Z,14.29
2023-04-18T22:53:18.108Z,14.30
2023-04-18T22:55:49.761Z,14.30
2023-04-18T22:58:19.237Z,14.33
2023-04-18T23:00:46.068Z,14.34
2023-04-18T23:03:16.570Z,14.30
2023-04-18T23:05:43.359Z,14.49
2023-04-18T23:08:10.084Z,14.79
2023-04-18T23:10:44.614Z,14.90
2023-04-18T23:13:14.046Z,14.72
2023-04-18T23:15:43.792Z,14.41
2023-04-18T23:18:13.427Z,14.30
2023-04-18T23:20:48.211Z,14.26
2023-04-18T23:23:15.045Z,14.29
2023-04-18T23:25:41.741Z,14.49
2023-04-18T23:28:11.548Z,14.52
2023-04-18T23:33:20.895Z,14.57
2023-04-18T23:35:54.252Z,14.59
2023-04-18T23:38:29.337Z,14.61
2023-04-18T23:40:59.134Z,14.64
2023-04-18T23:43:25.825Z,14.86
2023-04-18T23:46:03.904Z,15.17
2023-04-18T23:48:39.589Z,14.98
2023-04-18T23:51:07.451Z,14.85
2023-04-18T23:53:36.520Z,14.77
2023-04-18T23:56:09.597Z,14.55
2023-04-18T23:58:40.888Z,14.33
